sensor_id;sensor_type;location;lat;lon;timestamp;temperature;humidity
44487;DHT22;30191;50.908;6.962;2024-02-26T00:01:05;9.60;99.90
44487;DHT22;30191;50.908;6.962;2024-02-26T00:03:42;9.60;99.90
44487;DHT22;30191;50.908;6.962;2024-02-26T00:06:12;9.60;99.90
44487;DHT22;30191;50.908;6.962;2024-02-26T00:08:46;9.60;99.90
44487;DHT22;30191;50.908;6.962;2024-02-26T00:11:11;9.60;99.90
44487;DHT22;30191;50.908;6.962;2024-02-26T00:13:42;9.50;99.90
44487;DHT22;30191;50.908;6.962;2024-02-26T00:16:10;9.50;99.90
44487;DHT22;30191;50.908;6.962;2024-02-26T00:18:35;9.50;99.90
44487;DHT22;30191;50.908;6.962;2024-02-26T00:21:04;9.40;99.90
44487;DHT22;30191;50.908;6.962;2024-02-26T00:23:35;9.50;99.90
44487;DHT22;30191;50.908;6.962;2024-02-26T00:26:11;9.40;99.90
44487;DHT22;30191;50.908;6.962;2024-02-26T00:28:46;9.40;99.90
44487;DHT22;30191;50.908;6.962;2024-02-26T00:31:15;9.50;99.90
44487;DHT22;30191;50.908;6.962;2024-02-26T00:33:40;9.50;99.90
44487;DHT22;30191;50.908;6.962;2024-02-26T00:36:15;9.40;99.90
44487;DHT22;30191;50.908;6.962;2024-02-26T00:38:50;9.50;99.90
44487;DHT22;30191;50.908;6.962;2024-02-26T00:41:24;9.50;99.90
44487;DHT22;30191;50.908;6.962;2024-02-26T00:43:52;9.40;99.90
44487;DHT22;30191;50.908;6.962;2024-02-26T00:46:17;9.50;99.90
44487;DHT22;30191;50.908;6.962;2024-02-26T00:48:55;9.60;99.90
44487;DHT22;30191;50.908;6.962;2024-02-26T00:51:21;9.60;99.90
44487;DHT22;30191;50.908;6.962;2024-02-26T00:53:49;9.60;99.90
44487;DHT22;30191;50.908;6.962;2024-02-26T00:56:21;9.60;99.90
44487;DHT22;30191;50.908;6.962;2024-02-26T00:58:52;9.60;99.90
44487;DHT22;30191;50.908;6.962;2024-02-26T01:01:20;9.60;99.90
44487;DHT22;30191;50.908;6.962;2024-02-26T01:03:56;9.50;99.90
44487;DHT22;30191;50.908;6.962;2024-02-26T01:06:27;9.50;99.90
44487;DHT22;30191;50.908;6.962;2024-02-26T01:08:58;9.50;99.90
44487;DHT22;30191;50.908;6.962;2024-02-26T01:11:23;9.50;99.90
44487;DHT22;30191;50.908;6.962;2024-02-26T01:13:49;9.50;99.90
44487;DHT22;30191;50.908;6.962;2024-02-26T01:16:38;9.50;99.90
44487;DHT22;30191;50.908;6.962;2024-02-26T01:19:15;9.50;99.90
44487;DHT22;30191;50.908;6.962;2024-02-26T01:21:50;9.50;99.90
44487;DHT22;30191;50.908;6.962;2024-02-26T01:24:21;9.50;99.90
44487;DHT22;30191;50.908;6.962;2024-02-26T01:27:10;9.50;99.90
44487;DHT22;30191;50.908;6.962;2024-02-26T01:29:45;9.50;99.90
44487;DHT22;30191;50.908;6.962;2024-02-26T01:32:14;9.50;99.90
44487;DHT22;30191;50.908;6.962;2024-02-26T01:34:42;9.40;99.90
44487;DHT22;30191;50.908;6.962;2024-02-26T01:37:21;9.40;99.90
44487;DHT22;30191;50.908;6.962;2024-02-26T01:39:50;9.40;99.90
44487;DHT22;30191;50.908;6.962;2024-02-26T01:42:21;9.40;99.90
44487;DHT22;30191;50.908;6.962;2024-02-26T01:44:49;9.40;99.90
44487;DHT22;30191;50.908;6.962;2024-02-26T01:47:20;9.40;99.90
44487;DHT22;30191;50.908;6.962;2024-02-26T01:49:46;9.30;99.90
44487;DHT22;30191;50.908;6.962;2024-02-26T01:52:21;9.30;99.90
44487;DHT22;30191;50.908;6.962;2024-02-26T01:54:47;9.30;99.90
44487;DHT22;30191;50.908;6.962;2024-02-26T01:57:16;9.30;99.90
44487;DHT22;30191;50.908;6.962;2024-02-26T01:59:44;9.40;99.90
44487;DHT22;30191;50.908;6.962;2024-02-26T02:02:21;9.40;99.90
44487;DHT22;30191;50.908;6.962;2024-02-26T02:04:50;9.40;99.90
44487;DHT22;30191;50.908;6.962;2024-02-26T02:07:31;9.40;99.90
44487;DHT22;30191;50.908;6.962;2024-02-26T02:10:09;9.40;99.90
44487;DHT22;30191;50.908;6.962;2024-02-26T02:12:51;9.40;99.90
44487;DHT22;30191;50.908;6.962;2024-02-26T02:15:29;9.40;99.90
44487;DHT22;30191;50.908;6.962;2024-02-26T02:18:08;9.40;99.90
44487;DHT22;30191;50.908;6.962;2024-02-26T02:20:37;9.40;99.90
44487;DHT22;30191;50.908;6.962;2024-02-26T02:23:11;9.40;99.90
44487;DHT22;30191;50.908;6.962;2024-02-26T02:25:37;9.40;99.90
44487;DHT22;30191;50.908;6.962;2024-02-26T02:28:08;9.40;99.90
44487;DHT22;30191;50.908;6.962;2024-02-26T02:30:40;9.40;99.90
44487;DHT22;30191;50.908;6.962;2024-02-26T02:33:15;9.30;99.90
44487;DHT22;30191;50.908;6.962;2024-02-26T02:36:02;9.40;99.90
44487;DHT22;30191;50.908;6.962;2024-02-26T02:38:28;9.40;99.90
44487;DHT22;30191;50.908;6.962;2024-02-26T02:40:58;9.40;99.90
44487;DHT22;30191;50.908;6.962;2024-02-26T02:43:34;9.30;99.90
44487;DHT22;30191;50.908;6.962;2024-02-26T02:46:02;9.30;99.90
44487;DHT22;30191;50.908;6.962;2024-02-26T02:48:30;9.30;99.90
44487;DHT22;30191;50.908;6.962;2024-02-26T02:50:59;9.30;99.90
44487;DHT22;30191;50.908;6.962;2024-02-26T02:53:27;9.30;99.90
44487;DHT22;30191;50.908;6.962;2024-02-26T02:56:03;9.30;99.90
44487;DHT22;30191;50.908;6.962;2024-02-26T02:58:33;9.30;99.90
44487;DHT22;30191;50.908;6.962;2024-02-26T03:01:08;9.30;99.90
44487;DHT22;30191;50.908;6.962;2024-02-26T03:03:39;9.40;99.90
44487;DHT22;30191;50.908;6.962;2024-02-26T03:06:29;9.40;99.90
44487;DHT22;30191;50.908;6.962;2024-02-26T03:09:03;9.40;99.90
44487;DHT22;30191;50.908;6.962;2024-02-26T03:11:31;9.40;99.90
44487;DHT22;30191;50.908;6.962;2024-02-26T03:14:01;9.40;99.90
44487;DHT22;30191;50.908;6.962;2024-02-26T03:16:33;9.40;99.90
44487;DHT22;30191;50.908;6.962;2024-02-26T03:19:04;9.40;99.90
44487;DHT22;30191;50.908;6.962;2024-02-26T03:21:34;9.40;99.90
44487;DHT22;30191;50.908;6.962;2024-02-26T03:24:10;9.40;99.90
44487;DHT22;30191;50.908;6.962;2024-02-26T03:26:40;9.40;99.90
44487;DHT22;30191;50.908;6.962;2024-02-26T03:29:15;9.40;99.90
44487;DHT22;30191;50.908;6.962;2024-02-26T03:31:53;9.40;99.90
44487;DHT22;30191;50.908;6.962;2024-02-26T03:34:27;9.30;99.90
44487;DHT22;30191;50.908;6.962;2024-02-26T03:37:08;9.30;99.90
44487;DHT22;30191;50.908;6.962;2024-02-26T03:39:37;9.30;99.90
44487;DHT22;30191;50.908;6.962;2024-02-26T03:42:03;9.20;99.90
44487;DHT22;30191;50.908;6.962;2024-02-26T03:44:35;9.20;99.90
44487;DHT22;30191;50.908;6.962;2024-02-26T03:47:03;9.20;99.90
44487;DHT22;30191;50.908;6.962;2024-02-26T03:49:31;9.20;99.90
44487;DHT22;30191;50.908;6.962;2024-02-26T03:52:02;9.20;99.90
44487;DHT22;30191;50.908;6.962;2024-02-26T03:54:39;9.20;99.90
44487;DHT22;30191;50.908;6.962;2024-02-26T03:57:07;9.10;99.90
44487;DHT22;30191;50.908;6.962;2024-02-26T03:59:33;9.10;99.90
44487;DHT22;30191;50.908;6.962;2024-02-26T04:02:04;9.10;99.90
44487;DHT22;30191;50.908;6.962;2024-02-26T04:04:37;9.10;99.90
44487;DHT22;30191;50.908;6.962;2024-02-26T04:07:10;9.20;99.90
44487;DHT22;30191;50.908;6.962;2024-02-26T04:09:49;9.10;99.90
44487;DHT22;30191;50.908;6.962;2024-02-26T04:12:17;9.30;99.90
44487;DHT22;30191;50.908;6.962;2024-02-26T04:14:46;9.20;99.90
44487;DHT22;30191;50.908;6.962;2024-02-26T04:17:21;9.10;99.90
44487;DHT22;30191;50.908;6.962;2024-02-26T04:19:47;9.20;99.90
44487;DHT22;30191;50.908;6.962;2024-02-26T04:22:21;9.20;99.90
44487;DHT22;30191;50.908;6.962;2024-02-26T04:24:53;9.10;99.90
44487;DHT22;30191;50.908;6.962;2024-02-26T04:27:22;9.20;99.90
44487;DHT22;30191;50.908;6.962;2024-02-26T04:29:48;9.20;99.90
44487;DHT22;30191;50.908;6.962;2024-02-26T04:32:21;9.10;99.90
44487;DHT22;30191;50.908;6.962;2024-02-26T04:34:52;9.00;99.90
44487;DHT22;30191;50.908;6.962;2024-02-26T04:37:22;9.00;99.90
44487;DHT22;30191;50.908;6.962;2024-02-26T04:39:51;9.00;99.90
44487;DHT22;30191;50.908;6.962;2024-02-26T04:42:37;9.00;99.90
44487;DHT22;30191;50.908;6.962;2024-02-26T04:45:05;9.10;99.90
44487;DHT22;30191;50.908;6.962;2024-02-26T04:47:40;9.00;99.90
44487;DHT22;30191;50.908;6.962;2024-02-26T04:50:26;9.10;99.90
44487;DHT22;30191;50.908;6.962;2024-02-26T04:53:16;9.10;99.90
44487;DHT22;30191;50.908;6.962;2024-02-26T04:55:47;9.00;99.90
44487;DHT22;30191;50.908;6.962;2024-02-26T04:58:15;9.10;99.90
44487;DHT22;30191;50.908;6.962;2024-02-26T05:00:47;9.10;99.90
44487;DHT22;30191;50.908;6.962;2024-02-26T05:03:12;9.10;99.90
44487;DHT22;30191;50.908;6.962;2024-02-26T05:05:45;9.10;99.90
44487;DHT22;30191;50.908;6.962;2024-02-26T05:08:16;9.00;99.90
44487;DHT22;30191;50.908;6.962;2024-02-26T05:10:51;9.10;99.90
44487;DHT22;30191;50.908;6.962;2024-02-26T05:13:22;9.10;99.90
44487;DHT22;30191;50.908;6.962;2024-02-26T05:15:48;9.00;99.90
44487;DHT22;30191;50.908;6.962;2024-02-26T05:18:32;9.00;99.90
44487;DHT22;30191;50.908;6.962;2024-02-26T05:21:01;9.10;99.90
44487;DHT22;30191;50.908;6.962;2024-02-26T05:23:29;9.10;99.90
44487;DHT22;30191;50.908;6.962;2024-02-26T05:25:59;9.00;99.90
44487;DHT22;30191;50.908;6.962;2024-02-26T05:28:25;9.00;99.90
44487;DHT22;30191;50.908;6.962;2024-02-26T05:30:53;9.00;99.90
44487;DHT22;30191;50.908;6.962;2024-02-26T05:33:22;9.00;99.90
44487;DHT22;30191;50.908;6.962;2024-02-26T05:35:55;9.00;99.90
44487;DHT22;30191;50.908;6.962;2024-02-26T05:38:44;9.00;99.90
44487;DHT22;30191;50.908;6.962;2024-02-26T05:41:21;9.00;99.90
44487;DHT22;30191;50.908;6.962;2024-02-26T05:43:52;9.00;99.90
44487;DHT22;30191;50.908;6.962;2024-02-26T05:46:21;9.00;99.90
44487;DHT22;30191;50.908;6.962;2024-02-26T05:48:51;9.00;99.90
44487;DHT22;30191;50.908;6.962;2024-02-26T05:51:27;9.00;99.90
44487;DHT22;30191;50.908;6.962;2024-02-26T05:54:02;9.00;99.90
44487;DHT22;30191;50.908;6.962;2024-02-26T05:56:35;9.00;99.90
44487;DHT22;30191;50.908;6.962;2024-02-26T05:59:08;9.10;99.90
44487;DHT22;30191;50.908;6.962;2024-02-26T06:01:34;9.10;99.90
44487;DHT22;30191;50.908;6.962;2024-02-26T06:04:29;9.00;99.90
44487;DHT22;30191;50.908;6.962;2024-02-26T06:07:00;9.10;99.90
44487;DHT22;30191;50.908;6.962;2024-02-26T06:09:29;9.00;99.90
44487;DHT22;30191;50.908;6.962;2024-02-26T06:12:07;9.00;99.90
44487;DHT22;30191;50.908;6.962;2024-02-26T06:14:38;9.00;99.90
44487;DHT22;30191;50.908;6.962;2024-02-26T06:17:07;9.00;99.90
44487;DHT22;30191;50.908;6.962;2024-02-26T06:19:33;9.00;99.90
44487;DHT22;30191;50.908;6.962;2024-02-26T06:22:07;9.00;99.90
44487;DHT22;30191;50.908;6.962;2024-02-26T06:24:36;9.00;99.90
44487;DHT22;30191;50.908;6.962;2024-02-26T06:27:05;9.00;99.90
44487;DHT22;30191;50.908;6.962;2024-02-26T06:29:34;9.00;99.90
44487;DHT22;30191;50.908;6.962;2024-02-26T06:32:05;9.00;99.90
44487;DHT22;30191;50.908;6.962;2024-02-26T06:34:43;9.00;99.90
44487;DHT22;30191;50.908;6.962;2024-02-26T06:37:11;9.10;99.90
44487;DHT22;30191;50.908;6.962;2024-02-26T06:40:12;9.00;99.90
44487;DHT22;30191;50.908;6.962;2024-02-26T06:42:38;8.90;99.90
44487;DHT22;30191;50.908;6.962;2024-02-26T06:45:09;9.00;99.90
44487;DHT22;30191;50.908;6.962;2024-02-26T06:47:40;9.00;99.90
44487;DHT22;30191;50.908;6.962;2024-02-26T06:50:16;8.90;99.90
44487;DHT22;30191;50.908;6.962;2024-02-26T06:52:47;9.00;99.90
44487;DHT22;30191;50.908;6.962;2024-02-26T06:55:19;9.00;99.90
44487;DHT22;30191;50.908;6.962;2024-02-26T06:57:50;9.00;99.90
44487;DHT22;30191;50.908;6.962;2024-02-26T07:00:22;9.00;99.90
44487;DHT22;30191;50.908;6.962;2024-02-26T07:02:53;9.00;99.90
44487;DHT22;30191;50.908;6.962;2024-02-26T07:05:32;9.00;99.90
44487;DHT22;30191;50.908;6.962;2024-02-26T07:08:00;9.00;99.90
44487;DHT22;30191;50.908;6.962;2024-02-26T07:10:26;9.00;99.90
44487;DHT22;30191;50.908;6.962;2024-02-26T07:13:00;9.00;99.90
44487;DHT22;30191;50.908;6.962;2024-02-26T07:15:38;9.10;99.90
44487;DHT22;30191;50.908;6.962;2024-02-26T07:18:09;9.00;99.90
44487;DHT22;30191;50.908;6.962;2024-02-26T07:20:35;9.10;99.90
44487;DHT22;30191;50.908;6.962;2024-02-26T07:23:07;9.10;99.90
44487;DHT22;30191;50.908;6.962;2024-02-26T07:25:41;9.10;99.90
44487;DHT22;30191;50.908;6.962;2024-02-26T07:28:07;9.10;99.90
44487;DHT22;30191;50.908;6.962;2024-02-26T07:30:33;9.10;99.90
44487;DHT22;30191;50.908;6.962;2024-02-26T07:32:59;9.00;99.90
44487;DHT22;30191;50.908;6.962;2024-02-26T07:35:28;9.00;99.90
44487;DHT22;30191;50.908;6.962;2024-02-26T07:38:23;9.10;99.90
44487;DHT22;30191;50.908;6.962;2024-02-26T07:41:05;9.00;99.90
44487;DHT22;30191;50.908;6.962;2024-02-26T07:43:39;9.00;99.90
44487;DHT22;30191;50.908;6.962;2024-02-26T07:46:25;9.10;99.90
44487;DHT22;30191;50.908;6.962;2024-02-26T07:49:02;9.10;99.90
44487;DHT22;30191;50.908;6.962;2024-02-26T07:51:36;9.20;99.90
44487;DHT22;30191;50.908;6.962;2024-02-26T07:54:05;9.10;99.90
44487;DHT22;30191;50.908;6.962;2024-02-26T07:56:44;9.10;99.90
44487;DHT22;30191;50.908;6.962;2024-02-26T07:59:15;9.10;99.90
44487;DHT22;30191;50.908;6.962;2024-02-26T08:02:12;9.10;99.90
44487;DHT22;30191;50.908;6.962;2024-02-26T08:04:44;9.10;99.90
44487;DHT22;30191;50.908;6.962;2024-02-26T08:07:12;9.10;99.90
44487;DHT22;30191;50.908;6.962;2024-02-26T08:10:01;9.10;99.90
44487;DHT22;30191;50.908;6.962;2024-02-26T08:12:29;9.00;99.90
44487;DHT22;30191;50.908;6.962;2024-02-26T08:15:13;9.00;99.90
44487;DHT22;30191;50.908;6.962;2024-02-26T08:17:38;8.90;99.90
44487;DHT22;30191;50.908;6.962;2024-02-26T08:20:05;8.90;99.90
44487;DHT22;30191;50.908;6.962;2024-02-26T08:23:04;8.90;99.90
44487;DHT22;30191;50.908;6.962;2024-02-26T08:25:28;8.90;99.90
44487;DHT22;30191;50.908;6.962;2024-02-26T08:27:53;8.90;99.90
44487;DHT22;30191;50.908;6.962;2024-02-26T08:30:22;8.90;99.90
44487;DHT22;30191;50.908;6.962;2024-02-26T08:33:00;8.90;99.90
44487;DHT22;30191;50.908;6.962;2024-02-26T08:35:31;8.90;99.90
44487;DHT22;30191;50.908;6.962;2024-02-26T08:37:59;8.90;99.90
44487;DHT22;30191;50.908;6.962;2024-02-26T08:40:37;8.90;99.90
44487;DHT22;30191;50.908;6.962;2024-02-26T08:43:17;8.80;99.90
44487;DHT22;30191;50.908;6.962;2024-02-26T08:45:49;8.90;99.90
44487;DHT22;30191;50.908;6.962;2024-02-26T08:48:32;8.90;99.90
44487;DHT22;30191;50.908;6.962;2024-02-26T08:51:12;8.90;99.90
44487;DHT22;30191;50.908;6.962;2024-02-26T08:53:43;8.90;99.90
44487;DHT22;30191;50.908;6.962;2024-02-26T08:56:11;8.90;99.90
44487;DHT22;30191;50.908;6.962;2024-02-26T08:58:42;8.90;99.90
44487;DHT22;30191;50.908;6.962;2024-02-26T09:01:21;8.80;99.90
44487;DHT22;30191;50.908;6.962;2024-02-26T09:03:58;8.80;99.90
44487;DHT22;30191;50.908;6.962;2024-02-26T09:06:28;8.80;99.90
44487;DHT22;30191;50.908;6.962;2024-02-26T09:08:56;8.80;99.90
44487;DHT22;30191;50.908;6.962;2024-02-26T09:11:30;8.80;99.90
44487;DHT22;30191;50.908;6.962;2024-02-26T09:13:57;8.80;99.90
44487;DHT22;30191;50.908;6.962;2024-02-26T09:16:22;8.80;99.90
44487;DHT22;30191;50.908;6.962;2024-02-26T09:18:51;8.80;99.90
44487;DHT22;30191;50.908;6.962;2024-02-26T09:21:25;8.80;99.90
44487;DHT22;30191;50.908;6.962;2024-02-26T09:23:59;8.80;99.90
44487;DHT22;30191;50.908;6.962;2024-02-26T09:26:32;8.80;99.90
44487;DHT22;30191;50.908;6.962;2024-02-26T09:29:00;8.80;99.90
44487;DHT22;30191;50.908;6.962;2024-02-26T09:31:38;8.80;99.90
44487;DHT22;30191;50.908;6.962;2024-02-26T09:34:07;8.80;99.90
44487;DHT22;30191;50.908;6.962;2024-02-26T09:36:36;8.90;99.90
44487;DHT22;30191;50.908;6.962;2024-02-26T09:39:12;8.80;99.90
44487;DHT22;30191;50.908;6.962;2024-02-26T09:41:49;8.80;99.90
44487;DHT22;30191;50.908;6.962;2024-02-26T09:44:23;8.80;99.90
44487;DHT22;30191;50.908;6.962;2024-02-26T09:46:55;8.80;99.90
44487;DHT22;30191;50.908;6.962;2024-02-26T09:49:28;8.80;99.90
44487;DHT22;30191;50.908;6.962;2024-02-26T09:51:57;8.70;99.90
44487;DHT22;30191;50.908;6.962;2024-02-26T09:54:28;8.70;99.90
44487;DHT22;30191;50.908;6.962;2024-02-26T09:57:25;8.70;99.90
44487;DHT22;30191;50.908;6.962;2024-02-26T10:00:02;8.70;99.90
44487;DHT22;30191;50.908;6.962;2024-02-26T10:02:43;8.80;99.90
44487;DHT22;30191;50.908;6.962;2024-02-26T10:05:17;8.80;99.90
44487;DHT22;30191;50.908;6.962;2024-02-26T10:07:46;8.80;99.90
44487;DHT22;30191;50.908;6.962;2024-02-26T10:10:25;8.90;99.90
44487;DHT22;30191;50.908;6.962;2024-02-26T10:13:17;8.80;99.90
44487;DHT22;30191;50.908;6.962;2024-02-26T10:15:46;8.80;99.90
44487;DHT22;30191;50.908;6.962;2024-02-26T10:18:26;8.90;99.90
44487;DHT22;30191;50.908;6.962;2024-02-26T10:21:21;8.90;99.90
44487;DHT22;30191;50.908;6.962;2024-02-26T10:24:16;8.90;99.90
44487;DHT22;30191;50.908;6.962;2024-02-26T10:26:48;8.90;99.90
44487;DHT22;30191;50.908;6.962;2024-02-26T10:29:20;9.00;99.90
44487;DHT22;30191;50.908;6.962;2024-02-26T10:31:57;9.10;99.90
44487;DHT22;30191;50.908;6.962;2024-02-26T10:34:23;9.10;99.90
44487;DHT22;30191;50.908;6.962;2024-02-26T10:36:54;9.20;99.90
44487;DHT22;30191;50.908;6.962;2024-02-26T10:39:49;9.20;99.90
44487;DHT22;30191;50.908;6.962;2024-02-26T10:42:35;9.30;99.90
44487;DHT22;30191;50.908;6.962;2024-02-26T10:45:13;9.40;99.90
44487;DHT22;30191;50.908;6.962;2024-02-26T10:47:44;9.40;99.90
44487;DHT22;30191;50.908;6.962;2024-02-26T10:50:19;9.50;99.90
44487;DHT22;30191;50.908;6.962;2024-02-26T10:52:57;9.50;99.90
44487;DHT22;30191;50.908;6.962;2024-02-26T10:55:31;9.60;99.90
44487;DHT22;30191;50.908;6.962;2024-02-26T10:58:03;9.60;99.90
44487;DHT22;30191;50.908;6.962;2024-02-26T11:00:52;9.60;99.90
44487;DHT22;30191;50.908;6.962;2024-02-26T11:03:34;9.70;99.90
44487;DHT22;30191;50.908;6.962;2024-02-26T11:06:15;9.70;99.90
44487;DHT22;30191;50.908;6.962;2024-02-26T11:08:50;9.70;99.90
44487;DHT22;30191;50.908;6.962;2024-02-26T11:11:31;9.70;99.90
44487;DHT22;30191;50.908;6.962;2024-02-26T11:14:23;9.70;99.90
44487;DHT22;30191;50.908;6.962;2024-02-26T11:16:58;9.70;99.90
44487;DHT22;30191;50.908;6.962;2024-02-26T11:19:32;9.80;99.90
44487;DHT22;30191;50.908;6.962;2024-02-26T11:22:03;9.80;99.90
44487;DHT22;30191;50.908;6.962;2024-02-26T11:24:36;9.80;99.90
44487;DHT22;30191;50.908;6.962;2024-02-26T11:27:14;9.80;99.90
44487;DHT22;30191;50.908;6.962;2024-02-26T11:30:03;9.80;99.90
44487;DHT22;30191;50.908;6.962;2024-02-26T11:32:31;9.80;99.90
44487;DHT22;30191;50.908;6.962;2024-02-26T11:35:04;9.80;99.90
44487;DHT22;30191;50.908;6.962;2024-02-26T11:37:39;9.80;99.90
44487;DHT22;30191;50.908;6.962;2024-02-26T11:40:23;9.80;99.90
44487;DHT22;30191;50.908;6.962;2024-02-26T11:42:54;9.80;99.90
44487;DHT22;30191;50.908;6.962;2024-02-26T11:45:59;9.80;99.90
44487;DHT22;30191;50.908;6.962;2024-02-26T11:48:38;9.80;99.90
44487;DHT22;30191;50.908;6.962;2024-02-26T11:51:07;9.80;99.90
44487;DHT22;30191;50.908;6.962;2024-02-26T11:53:56;9.90;99.90
44487;DHT22;30191;50.908;6.962;2024-02-26T11:56:25;9.90;99.90
44487;DHT22;30191;50.908;6.962;2024-02-26T11:59:10;9.90;99.90
44487;DHT22;30191;50.908;6.962;2024-02-26T12:01:51;9.90;99.90
44487;DHT22;30191;50.908;6.962;2024-02-26T12:04:24;9.90;99.90
44487;DHT22;30191;50.908;6.962;2024-02-26T12:07:03;10.00;99.90
44487;DHT22;30191;50.908;6.962;2024-02-26T12:09:33;9.90;99.90
44487;DHT22;30191;50.908;6.962;2024-02-26T12:12:13;10.00;99.90
44487;DHT22;30191;50.908;6.962;2024-02-26T12:14:53;10.00;99.90
44487;DHT22;30191;50.908;6.962;2024-02-26T12:17:20;10.10;99.90
44487;DHT22;30191;50.908;6.962;2024-02-26T12:22:59;10.10;99.90
44487;DHT22;30191;50.908;6.962;2024-02-26T12:25:50;10.10;99.90
44487;DHT22;30191;50.908;6.962;2024-02-26T12:28:31;10.10;99.90
44487;DHT22;30191;50.908;6.962;2024-02-26T12:30:59;10.10;99.90
44487;DHT22;30191;50.908;6.962;2024-02-26T12:33:37;10.10;99.90
44487;DHT22;30191;50.908;6.962;2024-02-26T12:36:12;10.10;99.90
44487;DHT22;30191;50.908;6.962;2024-02-26T12:38:43;10.10;99.90
44487;DHT22;30191;50.908;6.962;2024-02-26T12:41:15;10.10;99.90
44487;DHT22;30191;50.908;6.962;2024-02-26T12:43:46;10.10;99.90
44487;DHT22;30191;50.908;6.962;2024-02-26T12:46:33;10.10;99.90
44487;DHT22;30191;50.908;6.962;2024-02-26T12:49:07;10.10;99.90
44487;DHT22;30191;50.908;6.962;2024-02-26T12:51:55;10.10;99.90
44487;DHT22;30191;50.908;6.962;2024-02-26T12:54:44;10.00;99.90
44487;DHT22;30191;50.908;6.962;2024-02-26T12:57:27;10.10;99.90
44487;DHT22;30191;50.908;6.962;2024-02-26T13:00:12;10.10;99.90
44487;DHT22;30191;50.908;6.962;2024-02-26T13:02:56;10.00;99.90
44487;DHT22;30191;50.908;6.962;2024-02-26T13:05:26;10.00;99.90
44487;DHT22;30191;50.908;6.962;2024-02-26T13:08:31;10.00;99.90
44487;DHT22;30191;50.908;6.962;2024-02-26T13:11:03;10.00;99.90
44487;DHT22;30191;50.908;6.962;2024-02-26T13:13:36;10.00;99.90
44487;DHT22;30191;50.908;6.962;2024-02-26T13:16:13;10.10;99.90
44487;DHT22;30191;50.908;6.962;2024-02-26T13:19:14;10.00;99.90
44487;DHT22;30191;50.908;6.962;2024-02-26T13:22:03;10.00;99.90
44487;DHT22;30191;50.908;6.962;2024-02-26T13:24:35;10.00;99.90
44487;DHT22;30191;50.908;6.962;2024-02-26T13:27:12;10.00;99.90
44487;DHT22;30191;50.908;6.962;2024-02-26T13:29:38;10.00;99.90
44487;DHT22;30191;50.908;6.962;2024-02-26T13:32:03;10.10;99.90
44487;DHT22;30191;50.908;6.962;2024-02-26T13:34:29;10.00;99.90
44487;DHT22;30191;50.908;6.962;2024-02-26T13:36:56;10.00;99.90
44487;DHT22;30191;50.908;6.962;2024-02-26T13:39:26;10.00;99.90
44487;DHT22;30191;50.908;6.962;2024-02-26T13:41:52;10.00;99.90
44487;DHT22;30191;50.908;6.962;2024-02-26T13:44:20;10.00;99.90
44487;DHT22;30191;50.908;6.962;2024-02-26T13:46:49;10.10;99.90
44487;DHT22;30191;50.908;6.962;2024-02-26T13:49:15;10.10;99.90
44487;DHT22;30191;50.908;6.962;2024-02-26T13:51:40;10.10;99.90
44487;DHT22;30191;50.908;6.962;2024-02-26T13:54:06;10.10;99.90
44487;DHT22;30191;50.908;6.962;2024-02-26T13:56:33;10.10;99.90
44487;DHT22;30191;50.908;6.962;2024-02-26T13:58:59;10.10;99.90
44487;DHT22;30191;50.908;6.962;2024-02-26T14:01:25;10.10;99.90
44487;DHT22;30191;50.908;6.962;2024-02-26T14:03:51;10.10;99.90
44487;DHT22;30191;50.908;6.962;2024-02-26T14:06:20;10.00;99.90
44487;DHT22;30191;50.908;6.962;2024-02-26T14:08:46;10.00;99.90
44487;DHT22;30191;50.908;6.962;2024-02-26T14:11:11;10.10;99.90
44487;DHT22;30191;50.908;6.962;2024-02-26T14:13:37;10.10;99.90
44487;DHT22;30191;50.908;6.962;2024-02-26T14:16:03;10.20;99.90
44487;DHT22;30191;50.908;6.962;2024-02-26T14:18:29;10.20;99.90
44487;DHT22;30191;50.908;6.962;2024-02-26T14:20:54;10.20;99.90
44487;DHT22;30191;50.908;6.962;2024-02-26T14:23:20;10.20;99.90
44487;DHT22;30191;50.908;6.962;2024-02-26T14:25:46;10.20;99.90
44487;DHT22;30191;50.908;6.962;2024-02-26T14:28:11;10.10;99.90
44487;DHT22;30191;50.908;6.962;2024-02-26T14:30:37;10.20;99.90
44487;DHT22;30191;50.908;6.962;2024-02-26T14:33:02;10.10;99.90
44487;DHT22;30191;50.908;6.962;2024-02-26T14:35:28;10.20;99.90
44487;DHT22;30191;50.908;6.962;2024-02-26T14:37:54;10.20;99.90
44487;DHT22;30191;50.908;6.962;2024-02-26T14:40:20;10.20;99.90
44487;DHT22;30191;50.908;6.962;2024-02-26T14:42:46;10.10;99.90
44487;DHT22;30191;50.908;6.962;2024-02-26T14:45:12;10.00;99.90
44487;DHT22;30191;50.908;6.962;2024-02-26T14:47:38;10.10;99.90
44487;DHT22;30191;50.908;6.962;2024-02-26T14:50:04;10.00;99.90
44487;DHT22;30191;50.908;6.962;2024-02-26T14:52:30;10.00;99.90
44487;DHT22;30191;50.908;6.962;2024-02-26T14:54:56;9.90;99.90
44487;DHT22;30191;50.908;6.962;2024-02-26T14:57:23;10.00;99.90
44487;DHT22;30191;50.908;6.962;2024-02-26T14:59:49;10.00;99.90
44487;DHT22;30191;50.908;6.962;2024-02-26T15:02:16;10.10;99.90
44487;DHT22;30191;50.908;6.962;2024-02-26T15:04:42;10.10;99.90
44487;DHT22;30191;50.908;6.962;2024-02-26T15:07:08;10.20;99.90
44487;DHT22;30191;50.908;6.962;2024-02-26T15:09:34;10.20;99.90
44487;DHT22;30191;50.908;6.962;2024-02-26T15:12:00;10.20;99.90
44487;DHT22;30191;50.908;6.962;2024-02-26T15:14:25;10.20;99.90
44487;DHT22;30191;50.908;6.962;2024-02-26T15:16:52;10.20;99.90
44487;DHT22;30191;50.908;6.962;2024-02-26T15:19:18;10.20;99.90
44487;DHT22;30191;50.908;6.962;2024-02-26T15:21:44;10.10;99.90
44487;DHT22;30191;50.908;6.962;2024-02-26T15:24:10;10.10;99.90
44487;DHT22;30191;50.908;6.962;2024-02-26T15:26:41;10.10;99.90
44487;DHT22;30191;50.908;6.962;2024-02-26T15:29:07;10.00;99.90
44487;DHT22;30191;50.908;6.962;2024-02-26T15:31:36;10.00;99.90
44487;DHT22;30191;50.908;6.962;2024-02-26T15:34:02;10.00;99.90
44487;DHT22;30191;50.908;6.962;2024-02-26T15:36:28;10.00;99.90
44487;DHT22;30191;50.908;6.962;2024-02-26T15:38:54;10.00;99.90
44487;DHT22;30191;50.908;6.962;2024-02-26T15:41:20;10.00;99.90
44487;DHT22;30191;50.908;6.962;2024-02-26T15:43:45;10.00;99.90
44487;DHT22;30191;50.908;6.962;2024-02-26T15:46:11;10.00;99.90
44487;DHT22;30191;50.908;6.962;2024-02-26T15:48:37;10.10;99.90
44487;DHT22;30191;50.908;6.962;2024-02-26T15:51:03;10.00;99.90
44487;DHT22;30191;50.908;6.962;2024-02-26T15:53:29;10.10;99.90
44487;DHT22;30191;50.908;6.962;2024-02-26T15:55:54;10.00;99.90
44487;DHT22;30191;50.908;6.962;2024-02-26T15:58:20;10.00;99.90
44487;DHT22;30191;50.908;6.962;2024-02-26T16:00:46;10.00;99.90
44487;DHT22;30191;50.908;6.962;2024-02-26T16:03:12;10.00;99.90
44487;DHT22;30191;50.908;6.962;2024-02-26T16:05:38;10.00;99.90
44487;DHT22;30191;50.908;6.962;2024-02-26T16:08:17;9.90;99.90
44487;DHT22;30191;50.908;6.962;2024-02-26T16:10:46;9.90;99.90
44487;DHT22;30191;50.908;6.962;2024-02-26T16:13:12;9.90;99.90
44487;DHT22;30191;50.908;6.962;2024-02-26T16:15:39;9.80;99.90
44487;DHT22;30191;50.908;6.962;2024-02-26T16:18:08;9.80;99.90
44487;DHT22;30191;50.908;6.962;2024-02-26T16:20:33;9.80;99.90